Startpagina
METAR-TAF:

METAR-TAF

Vliegvelden :

Shell, Ecuador

breedte: 01-30-19S, lengte: 078-03-46W, hoogte: 1056 m

Actueel weer

Dit bericht is 7 uur en het 6 minuten geleden gemaakt, om 23:00 UTC
Wind 2 kt uit het noorden
Temperatuur 24°C
Vochtigheid 78%
Druk 1013 hPa
Zicht 10 km of meer
Weinig wolken op 2300 ft
Verspreide wolken op 10000 ft

METAR: SESM 102300Z 01002KT 9999 FEW023 SCT100 24/20 Q1013 RMK A2992

Tijdstip: 01:06 (06:06 UTC)


TAF: ontbreekt

Waarnemingen en weersverwachtingen van meer dan 4000 vliegvelden (METAR en TAF).

De beschikbare stations zijn de gele en rode punten op de kaart.

Ga met uw muis naar het station om de naam te zien.

Klik dan om waarnemingen en weersverwachtingen te zien.

kaart wijzigen: klik op de groene knoppen met een zwart kruis om in te zoomen, op de groene knop met een streepje om uit te zoomen of op de groene pijlen voor aangrenzende kaarten.


METAR-TAF: